sensor_id;sensor_type;location;lat;lon;timestamp;pressure;altitude;pressure_sealevel;temperature;humidity
9187;BME280;7273;48.902;9.410;2022-09-09T00:01:06;97651.13;;;15.28;63.36
9187;BME280;7273;48.902;9.410;2022-09-09T00:03:46;97649.53;;;15.27;63.76
9187;BME280;7273;48.902;9.410;2022-09-09T00:06:29;97648.91;;;15.30;63.78
9187;BME280;7273;48.902;9.410;2022-09-09T00:11:40;97651.28;;;15.23;63.46
9187;BME280;7273;48.902;9.410;2022-09-09T00:14:23;97651.78;;;15.25;64.01
9187;BME280;7273;48.902;9.410;2022-09-09T00:16:57;97651.59;;;15.21;63.32
9187;BME280;7273;48.902;9.410;2022-09-09T00:19:37;97646.66;;;15.23;63.54
9187;BME280;7273;48.902;9.410;2022-09-09T00:22:15;97646.16;;;15.21;63.66
9187;BME280;7273;48.902;9.410;2022-09-09T00:24:54;97637.97;;;15.21;63.54
9187;BME280;7273;48.902;9.410;2022-09-09T00:27:35;97635.56;;;15.20;63.60
9187;BME280;7273;48.902;9.410;2022-09-09T00:30:14;97642.47;;;15.17;63.85
9187;BME280;7273;48.902;9.410;2022-09-09T00:32:41;97637.63;;;15.14;63.34
9187;BME280;7273;48.902;9.410;2022-09-09T00:37:35;97639.72;;;15.09;63.57
9187;BME280;7273;48.902;9.410;2022-09-09T00:40:08;97636.34;;;15.12;63.40
9187;BME280;7273;48.902;9.410;2022-09-09T00:42:42;97632.50;;;15.13;63.77
9187;BME280;7273;48.902;9.410;2022-09-09T00:57:51;97640.03;;;15.07;63.79
9187;BME280;7273;48.902;9.410;2022-09-09T01:00:27;97642.13;;;15.10;64.20
9187;BME280;7273;48.902;9.410;2022-09-09T01:03:06;97633.13;;;15.10;64.08
9187;BME280;7273;48.902;9.410;2022-09-09T01:06:00;97632.19;;;15.14;64.72
9187;BME280;7273;48.902;9.410;2022-09-09T01:10:58;97635.06;;;15.18;63.64
9187;BME280;7273;48.902;9.410;2022-09-09T01:13:31;97645.66;;;15.19;64.00
9187;BME280;7273;48.902;9.410;2022-09-09T01:16:00;97644.25;;;15.22;64.05
9187;BME280;7273;48.902;9.410;2022-09-09T01:18:54;97644.25;;;15.30;64.99
9187;BME280;7273;48.902;9.410;2022-09-09T01:21:35;97649.06;;;15.33;64.42
9187;BME280;7273;48.902;9.410;2022-09-09T01:24:22;97648.44;;;15.36;64.20
9187;BME280;7273;48.902;9.410;2022-09-09T01:27:00;97651.66;;;15.38;64.11
9187;BME280;7273;48.902;9.410;2022-09-09T01:29:26;97644.28;;;15.39;63.89
9187;BME280;7273;48.902;9.410;2022-09-09T01:34:17;97649.13;;;15.42;63.61
9187;BME280;7273;48.902;9.410;2022-09-09T01:36:48;97642.56;;;15.43;63.80
9187;BME280;7273;48.902;9.410;2022-09-09T01:39:16;97644.78;;;15.41;63.83
9187;BME280;7273;48.902;9.410;2022-09-09T01:41:42;97640.63;;;15.43;63.96
9187;BME280;7273;48.902;9.410;2022-09-09T01:44:08;97650.41;;;15.44;63.84
9187;BME280;7273;48.902;9.410;2022-09-09T01:46:34;97649.28;;;15.45;63.82
9187;BME280;7273;48.902;9.410;2022-09-09T01:49:02;97651.38;;;15.57;63.38
9187;BME280;7273;48.902;9.410;2022-09-09T01:51:28;97652.06;;;15.71;63.01
9187;BME280;7273;48.902;9.410;2022-09-09T01:53:53;97658.47;;;15.83;62.54
9187;BME280;7273;48.902;9.410;2022-09-09T01:56:52;97657.84;;;15.95;62.95
9187;BME280;7273;48.902;9.410;2022-09-09T01:59:47;97649.00;;;16.06;62.36
9187;BME280;7273;48.902;9.410;2022-09-09T02:02:17;97654.97;;;16.17;63.95
9187;BME280;7273;48.902;9.410;2022-09-09T02:04:54;97649.47;;;16.26;61.78
9187;BME280;7273;48.902;9.410;2022-09-09T02:07:38;97654.44;;;16.32;61.36
9187;BME280;7273;48.902;9.410;2022-09-09T02:12:40;97641.47;;;16.46;61.04
9187;BME280;7273;48.902;9.410;2022-09-09T02:15:17;97641.63;;;16.50;61.26
9187;BME280;7273;48.902;9.410;2022-09-09T02:17:46;97639.34;;;16.52;61.22
9187;BME280;7273;48.902;9.410;2022-09-09T02:20:14;97644.47;;;16.53;61.47
9187;BME280;7273;48.902;9.410;2022-09-09T02:22:42;97636.16;;;16.50;61.65
9187;BME280;7273;48.902;9.410;2022-09-09T02:25:13;97631.94;;;16.44;62.02
9187;BME280;7273;48.902;9.410;2022-09-09T02:27:43;97637.28;;;16.32;62.40
9187;BME280;7273;48.902;9.410;2022-09-09T02:30:10;97633.25;;;16.21;62.84
9187;BME280;7273;48.902;9.410;2022-09-09T02:32:38;97642.59;;;16.20;62.73
9187;BME280;7273;48.902;9.410;2022-09-09T02:35:09;97637.13;;;16.11;62.64
9187;BME280;7273;48.902;9.410;2022-09-09T02:37:38;97637.13;;;16.02;63.15
9187;BME280;7273;48.902;9.410;2022-09-09T02:40:10;97648.69;;;15.99;63.41
9187;BME280;7273;48.902;9.410;2022-09-09T02:42:40;97643.22;;;15.91;63.35
9187;BME280;7273;48.902;9.410;2022-09-09T02:45:07;97644.03;;;15.83;63.53
9187;BME280;7273;48.902;9.410;2022-09-09T02:47:47;97641.31;;;15.74;63.94
9187;BME280;7273;48.902;9.410;2022-09-09T02:50:33;97648.34;;;15.67;64.52
9187;BME280;7273;48.902;9.410;2022-09-09T02:53:37;97656.19;;;15.60;64.34
9187;BME280;7273;48.902;9.410;2022-09-09T02:56:04;97654.56;;;15.50;64.42
9187;BME280;7273;48.902;9.410;2022-09-09T02:58:32;97662.28;;;15.48;64.17
9187;BME280;7273;48.902;9.410;2022-09-09T03:00:58;97665.16;;;15.43;64.37
9187;BME280;7273;48.902;9.410;2022-09-09T03:03:26;97664.78;;;15.36;64.05
9187;BME280;7273;48.902;9.410;2022-09-09T03:05:52;97659.81;;;15.30;64.61
9187;BME280;7273;48.902;9.410;2022-09-09T03:08:17;97651.13;;;15.28;64.56
9187;BME280;7273;48.902;9.410;2022-09-09T03:10:43;97649.19;;;15.20;64.38
9187;BME280;7273;48.902;9.410;2022-09-09T03:13:09;97649.34;;;15.15;64.55
9187;BME280;7273;48.902;9.410;2022-09-09T03:15:35;97639.53;;;15.05;65.00
9187;BME280;7273;48.902;9.410;2022-09-09T03:18:01;97638.41;;;15.06;64.71
9187;BME280;7273;48.902;9.410;2022-09-09T03:20:28;97629.91;;;15.08;64.70
9187;BME280;7273;48.902;9.410;2022-09-09T03:22:55;97626.59;;;15.11;64.33
9187;BME280;7273;48.902;9.410;2022-09-09T03:25:21;97630.94;;;15.20;63.90
9187;BME280;7273;48.902;9.410;2022-09-09T03:27:52;97624.22;;;15.26;63.73
9187;BME280;7273;48.902;9.410;2022-09-09T03:30:20;97618.28;;;15.33;63.80
9187;BME280;7273;48.902;9.410;2022-09-09T03:32:46;97627.44;;;15.37;63.66
9187;BME280;7273;48.902;9.410;2022-09-09T03:35:11;97624.13;;;15.40;63.60
9187;BME280;7273;48.902;9.410;2022-09-09T03:37:37;97632.31;;;15.48;63.16
9187;BME280;7273;48.902;9.410;2022-09-09T03:40:04;97631.50;;;15.48;63.35
9187;BME280;7273;48.902;9.410;2022-09-09T03:42:29;97635.66;;;15.54;63.01
9187;BME280;7273;48.902;9.410;2022-09-09T03:44:55;97632.13;;;15.53;63.06
9187;BME280;7273;48.902;9.410;2022-09-09T03:47:23;97638.25;;;15.59;62.88
9187;BME280;7273;48.902;9.410;2022-09-09T03:49:48;97630.22;;;15.62;62.72
9187;BME280;7273;48.902;9.410;2022-09-09T03:52:14;97639.22;;;15.63;62.58
9187;BME280;7273;48.902;9.410;2022-09-09T03:54:40;97629.25;;;15.58;62.89
9187;BME280;7273;48.902;9.410;2022-09-09T03:57:06;97632.63;;;15.64;62.79
9187;BME280;7273;48.902;9.410;2022-09-09T03:59:32;97640.66;;;15.60;62.87
9187;BME280;7273;48.902;9.410;2022-09-09T04:01:57;97641.94;;;15.54;62.94
9187;BME280;7273;48.902;9.410;2022-09-09T04:04:24;97640.63;;;15.52;63.38
9187;BME280;7273;48.902;9.410;2022-09-09T04:06:51;97644.81;;;15.49;63.46
9187;BME280;7273;48.902;9.410;2022-09-09T04:09:17;97648.19;;;15.46;63.58
9187;BME280;7273;48.902;9.410;2022-09-09T04:11:42;97648.50;;;15.45;63.41
9187;BME280;7273;48.902;9.410;2022-09-09T04:14:08;97655.19;;;15.39;63.63
9187;BME280;7273;48.902;9.410;2022-09-09T04:16:34;97654.34;;;15.30;64.11
9187;BME280;7273;48.902;9.410;2022-09-09T04:19:03;97650.63;;;15.17;63.87
9187;BME280;7273;48.902;9.410;2022-09-09T04:21:30;97653.81;;;15.11;63.99
9187;BME280;7273;48.902;9.410;2022-09-09T04:23:55;97643.66;;;15.03;64.45
9187;BME280;7273;48.902;9.410;2022-09-09T04:26:21;97646.56;;;15.06;64.27
9187;BME280;7273;48.902;9.410;2022-09-09T04:28:47;97652.69;;;15.12;63.94
9187;BME280;7273;48.902;9.410;2022-09-09T04:31:22;97639.88;;;15.21;64.16
9187;BME280;7273;48.902;9.410;2022-09-09T04:33:51;97641.03;;;15.28;63.66
9187;BME280;7273;48.902;9.410;2022-09-09T04:36:18;97647.13;;;15.34;63.51
9187;BME280;7273;48.902;9.410;2022-09-09T04:38:45;97650.56;;;15.39;63.34
9187;BME280;7273;48.902;9.410;2022-09-09T04:41:10;97649.13;;;15.42;63.14
9187;BME280;7273;48.902;9.410;2022-09-09T04:43:38;97654.91;;;15.49;63.23
9187;BME280;7273;48.902;9.410;2022-09-09T04:46:04;97652.66;;;15.51;62.83
9187;BME280;7273;48.902;9.410;2022-09-09T04:48:29;97658.47;;;15.58;62.77
9187;BME280;7273;48.902;9.410;2022-09-09T04:51:01;97664.88;;;15.62;63.01
9187;BME280;7273;48.902;9.410;2022-09-09T04:53:27;97663.13;;;15.66;62.75
9187;BME280;7273;48.902;9.410;2022-09-09T04:56:12;97650.94;;;15.72;62.78
9187;BME280;7273;48.902;9.410;2022-09-09T04:58:39;97656.22;;;15.77;62.20
9187;BME280;7273;48.902;9.410;2022-09-09T05:01:06;97665.53;;;15.84;62.35
9187;BME280;7273;48.902;9.410;2022-09-09T05:03:32;97668.91;;;15.90;62.19
9187;BME280;7273;48.902;9.410;2022-09-09T05:08:31;97672.75;;;15.97;62.27
9187;BME280;7273;48.902;9.410;2022-09-09T05:10:57;97675.19;;;15.99;62.17
9187;BME280;7273;48.902;9.410;2022-09-09T05:13:24;97675.81;;;16.04;62.01
9187;BME280;7273;48.902;9.410;2022-09-09T05:15:54;97682.06;;;16.05;62.22
9187;BME280;7273;48.902;9.410;2022-09-09T05:18:20;97684.16;;;16.08;62.11
9187;BME280;7273;48.902;9.410;2022-09-09T05:20:48;97684.31;;;16.11;61.96
9187;BME280;7273;48.902;9.410;2022-09-09T05:23:13;97681.44;;;16.17;61.76
9187;BME280;7273;48.902;9.410;2022-09-09T05:25:40;97689.47;;;16.22;61.95
9187;BME280;7273;48.902;9.410;2022-09-09T05:28:06;97688.81;;;16.25;61.94
9187;BME280;7273;48.902;9.410;2022-09-09T05:30:33;97692.81;;;16.27;61.85
9187;BME280;7273;48.902;9.410;2022-09-09T05:32:59;97689.91;;;16.32;61.77
9187;BME280;7273;48.902;9.410;2022-09-09T05:35:25;97690.91;;;16.36;61.71
9187;BME280;7273;48.902;9.410;2022-09-09T05:37:50;97696.19;;;16.41;61.71
9187;BME280;7273;48.902;9.410;2022-09-09T05:40:16;97693.13;;;16.43;61.57
9187;BME280;7273;48.902;9.410;2022-09-09T05:42:41;97687.34;;;16.44;61.77
9187;BME280;7273;48.902;9.410;2022-09-09T05:45:08;97697.00;;;16.50;61.68
9187;BME280;7273;48.902;9.410;2022-09-09T05:47:34;97695.72;;;16.56;61.57
9187;BME280;7273;48.902;9.410;2022-09-09T05:50:00;97697.47;;;16.61;61.41
9187;BME280;7273;48.902;9.410;2022-09-09T05:52:26;97706.44;;;16.70;61.72
9187;BME280;7273;48.902;9.410;2022-09-09T05:54:52;97704.78;;;16.86;61.85
9187;BME280;7273;48.902;9.410;2022-09-09T05:57:20;97702.22;;;16.89;61.92
9187;BME280;7273;48.902;9.410;2022-09-09T05:59:46;97704.31;;;16.92;61.98
9187;BME280;7273;48.902;9.410;2022-09-09T06:02:11;97706.06;;;16.97;61.85
9187;BME280;7273;48.902;9.410;2022-09-09T06:04:38;97714.09;;;17.02;61.68
9187;BME280;7273;48.902;9.410;2022-09-09T06:07:04;97705.47;;;17.20;61.39
9187;BME280;7273;48.902;9.410;2022-09-09T06:09:30;97709.34;;;17.19;61.86
9187;BME280;7273;48.902;9.410;2022-09-09T06:11:56;97712.25;;;17.23;61.97
9187;BME280;7273;48.902;9.410;2022-09-09T06:14:23;97692.31;;;17.14;62.08
9187;BME280;7273;48.902;9.410;2022-09-09T06:16:50;97697.75;;;17.22;61.88
9187;BME280;7273;48.902;9.410;2022-09-09T06:19:16;97704.63;;;17.28;61.82
9187;BME280;7273;48.902;9.410;2022-09-09T06:21:41;97709.66;;;17.26;61.76
9187;BME280;7273;48.902;9.410;2022-09-09T06:24:10;97705.09;;;17.39;61.46
9187;BME280;7273;48.902;9.410;2022-09-09T06:26:38;97697.03;;;17.51;62.89
9187;BME280;7273;48.902;9.410;2022-09-09T06:29:05;97702.50;;;17.51;61.83
9187;BME280;7273;48.902;9.410;2022-09-09T06:31:33;97702.91;;;17.62;61.70
9187;BME280;7273;48.902;9.410;2022-09-09T06:33:59;97695.19;;;17.64;61.48
9187;BME280;7273;48.902;9.410;2022-09-09T06:36:30;97694.97;;;17.69;61.54
9187;BME280;7273;48.902;9.410;2022-09-09T06:38:56;97699.50;;;17.65;61.43
9187;BME280;7273;48.902;9.410;2022-09-09T06:41:24;97696.31;;;17.63;61.39
9187;BME280;7273;48.902;9.410;2022-09-09T06:43:51;97707.25;;;17.63;61.29
9187;BME280;7273;48.902;9.410;2022-09-09T06:46:20;97708.84;;;17.64;61.24
9187;BME280;7273;48.902;9.410;2022-09-09T06:48:49;97708.66;;;17.69;61.12
9187;BME280;7273;48.902;9.410;2022-09-09T06:51:15;97713.31;;;17.68;61.06
9187;BME280;7273;48.902;9.410;2022-09-09T06:53:43;97715.38;;;17.71;61.10
9187;BME280;7273;48.902;9.410;2022-09-09T06:58:34;97716.88;;;17.69;61.26
9187;BME280;7273;48.902;9.410;2022-09-09T07:01:04;97718.75;;;17.77;61.17
9187;BME280;7273;48.902;9.410;2022-09-09T07:03:31;97715.69;;;17.78;61.05
9187;BME280;7273;48.902;9.410;2022-09-09T07:05:56;97712.75;;;17.83;60.94
9187;BME280;7273;48.902;9.410;2022-09-09T07:08:23;97717.06;;;17.84;60.84
9187;BME280;7273;48.902;9.410;2022-09-09T07:10:50;97720.78;;;17.88;60.78
9187;BME280;7273;48.902;9.410;2022-09-09T07:13:23;97716.56;;;17.91;60.71
9187;BME280;7273;48.902;9.410;2022-09-09T07:15:50;97721.84;;;17.96;60.64
9187;BME280;7273;48.902;9.410;2022-09-09T07:18:16;97720.25;;;17.95;60.96
9187;BME280;7273;48.902;9.410;2022-09-09T07:20:41;97718.22;;;18.04;60.78
9187;BME280;7273;48.902;9.410;2022-09-09T07:23:07;97716.13;;;18.09;60.65
9187;BME280;7273;48.902;9.410;2022-09-09T07:25:32;97723.66;;;18.12;60.66
9187;BME280;7273;48.902;9.410;2022-09-09T07:27:57;97720.38;;;18.19;60.54
9187;BME280;7273;48.902;9.410;2022-09-09T07:30:23;97714.56;;;18.20;60.53
9187;BME280;7273;48.902;9.410;2022-09-09T07:32:51;97707.78;;;18.26;60.70
9187;BME280;7273;48.902;9.410;2022-09-09T07:35:17;97720.47;;;18.31;60.56
9187;BME280;7273;48.902;9.410;2022-09-09T07:37:42;97718.19;;;18.33;60.59
9187;BME280;7273;48.902;9.410;2022-09-09T07:40:08;97716.66;;;18.44;60.32
9187;BME280;7273;48.902;9.410;2022-09-09T07:42:33;97718.41;;;18.48;60.35
9187;BME280;7273;48.902;9.410;2022-09-09T07:44:59;97721.88;;;18.57;60.27
9187;BME280;7273;48.902;9.410;2022-09-09T07:47:24;97716.28;;;18.66;60.24
9187;BME280;7273;48.902;9.410;2022-09-09T07:49:50;97714.16;;;18.71;60.33
9187;BME280;7273;48.902;9.410;2022-09-09T07:52:15;97718.75;;;18.80;60.27
9187;BME280;7273;48.902;9.410;2022-09-09T07:54:41;97720.59;;;18.88;60.39
9187;BME280;7273;48.902;9.410;2022-09-09T07:57:07;97725.84;;;18.93;60.34
9187;BME280;7273;48.902;9.410;2022-09-09T07:59:32;97721.09;;;19.02;60.29
9187;BME280;7273;48.902;9.410;2022-09-09T08:01:58;97711.50;;;19.08;60.25
9187;BME280;7273;48.902;9.410;2022-09-09T08:04:25;97725.13;;;19.16;60.14
9187;BME280;7273;48.902;9.410;2022-09-09T08:06:56;97725.03;;;19.25;60.13
9187;BME280;7273;48.902;9.410;2022-09-09T08:09:24;97730.28;;;19.30;60.11
9187;BME280;7273;48.902;9.410;2022-09-09T08:11:55;97738.22;;;19.31;60.08
9187;BME280;7273;48.902;9.410;2022-09-09T08:14:22;97739.25;;;19.39;59.84
9187;BME280;7273;48.902;9.410;2022-09-09T08:16:49;97739.69;;;19.53;59.75
9187;BME280;7273;48.902;9.410;2022-09-09T08:19:15;97746.00;;;19.77;59.41
9187;BME280;7273;48.902;9.410;2022-09-09T08:21:42;97735.56;;;20.07;59.21
9187;BME280;7273;48.902;9.410;2022-09-09T08:24:09;97730.53;;;20.21;59.34
9187;BME280;7273;48.902;9.410;2022-09-09T08:26:46;97735.84;;;20.42;59.26
9187;BME280;7273;48.902;9.410;2022-09-09T08:29:14;97738.75;;;20.61;58.91
9187;BME280;7273;48.902;9.410;2022-09-09T08:31:51;97738.50;;;20.66;58.83
9187;BME280;7273;48.902;9.410;2022-09-09T08:34:20;97741.19;;;20.90;58.42
9187;BME280;7273;48.902;9.410;2022-09-09T08:36:46;97743.00;;;21.13;58.09
9187;BME280;7273;48.902;9.410;2022-09-09T08:39:18;97737.09;;;21.27;58.03
9187;BME280;7273;48.902;9.410;2022-09-09T08:55:03;97754.50;;;21.93;57.33
9187;BME280;7273;48.902;9.410;2022-09-09T08:57:32;97752.63;;;21.97;57.52
9187;BME280;7273;48.902;9.410;2022-09-09T08:59:58;97751.41;;;21.79;57.88
9187;BME280;7273;48.902;9.410;2022-09-09T09:02:32;97750.59;;;21.79;57.35
9187;BME280;7273;48.902;9.410;2022-09-09T09:05:13;97744.81;;;21.84;57.14
9187;BME280;7273;48.902;9.410;2022-09-09T09:08:02;97738.97;;;22.20;56.65
9187;BME280;7273;48.902;9.410;2022-09-09T09:12:57;97745.75;;;22.41;56.84
9187;BME280;7273;48.902;9.410;2022-09-09T09:15:25;97740.44;;;22.68;56.45
9187;BME280;7273;48.902;9.410;2022-09-09T09:17:52;97738.19;;;22.92;56.29
9187;BME280;7273;48.902;9.410;2022-09-09T09:20:26;97731.72;;;23.04;56.07
9187;BME280;7273;48.902;9.410;2022-09-09T09:22:59;97729.16;;;23.14;55.67
9187;BME280;7273;48.902;9.410;2022-09-09T09:25:31;97733.59;;;23.00;55.59
9187;BME280;7273;48.902;9.410;2022-09-09T09:28:01;97721.97;;;23.10;55.83
9187;BME280;7273;48.902;9.410;2022-09-09T09:30:42;97723.25;;;23.35;54.86
9187;BME280;7273;48.902;9.410;2022-09-09T09:35:59;97713.16;;;23.46;55.41
9187;BME280;7273;48.902;9.410;2022-09-09T09:38:27;97698.28;;;23.50;55.32
9187;BME280;7273;48.902;9.410;2022-09-09T09:40:56;97703.84;;;23.54;55.21
9187;BME280;7273;48.902;9.410;2022-09-09T09:45:57;97703.75;;;23.05;52.43
9187;BME280;7273;48.902;9.410;2022-09-09T09:48:24;97703.50;;;22.72;55.98
9187;BME280;7273;48.902;9.410;2022-09-09T10:01:25;97708.75;;;21.89;54.31
9187;BME280;7273;48.902;9.410;2022-09-09T10:06:35;97690.50;;;21.34;55.08
9187;BME280;7273;48.902;9.410;2022-09-09T10:09:29;97687.38;;;21.20;54.48
9187;BME280;7273;48.902;9.410;2022-09-09T10:15:02;97699.47;;;21.31;53.87
9187;BME280;7273;48.902;9.410;2022-09-09T10:17:54;97709.13;;;21.56;53.31
9187;BME280;7273;48.902;9.410;2022-09-09T10:23:29;97701.03;;;21.94;52.70
9187;BME280;7273;48.902;9.410;2022-09-09T10:34:17;97698.19;;;22.83;51.73
9187;BME280;7273;48.902;9.410;2022-09-09T10:36:49;97691.66;;;22.91;51.75
9187;BME280;7273;48.902;9.410;2022-09-09T10:39:35;97692.78;;;23.09;50.81
9187;BME280;7273;48.902;9.410;2022-09-09T10:42:26;97697.13;;;23.29;47.07
9187;BME280;7273;48.902;9.410;2022-09-09T10:48:11;97692.56;;;23.88;51.03
9187;BME280;7273;48.902;9.410;2022-09-09T10:56:15;97691.91;;;24.54;49.82
9187;BME280;7273;48.902;9.410;2022-09-09T10:58:55;97688.91;;;24.99;47.62
9187;BME280;7273;48.902;9.410;2022-09-09T11:01:31;97701.25;;;25.46;48.13
9187;BME280;7273;48.902;9.410;2022-09-09T11:04:26;97697.50;;;26.25;45.11
9187;BME280;7273;48.902;9.410;2022-09-09T11:06:55;97693.50;;;26.19;49.07
9187;BME280;7273;48.902;9.410;2022-09-09T11:09:24;97683.38;;;25.87;49.32
9187;BME280;7273;48.902;9.410;2022-09-09T11:11:54;97687.41;;;25.46;50.16
9187;BME280;7273;48.902;9.410;2022-09-09T11:14:36;97686.25;;;25.10;49.35
9187;BME280;7273;48.902;9.410;2022-09-09T11:17:18;97687.09;;;25.17;48.92
9187;BME280;7273;48.902;9.410;2022-09-09T11:19:45;97689.25;;;24.94;50.78
9187;BME280;7273;48.902;9.410;2022-09-09T11:22:33;97683.88;;;25.08;47.17
9187;BME280;7273;48.902;9.410;2022-09-09T11:25:09;97671.56;;;25.02;49.92
9187;BME280;7273;48.902;9.410;2022-09-09T11:30:22;97683.84;;;24.72;50.23
9187;BME280;7273;48.902;9.410;2022-09-09T11:35:34;97710.47;;;24.54;50.87
9187;BME280;7273;48.902;9.410;2022-09-09T11:38:21;97715.13;;;24.17;49.25
9187;BME280;7273;48.902;9.410;2022-09-09T11:40:59;97724.06;;;23.84;51.35
9187;BME280;7273;48.902;9.410;2022-09-09T11:43:52;97746.22;;;23.42;51.23
9187;BME280;7273;48.902;9.410;2022-09-09T11:46:22;97752.56;;;23.01;52.91
9187;BME280;7273;48.902;9.410;2022-09-09T11:49:03;97755.16;;;22.21;54.40
9187;BME280;7273;48.902;9.410;2022-09-09T11:51:30;97751.19;;;21.41;55.75
9187;BME280;7273;48.902;9.410;2022-09-09T11:53:58;97754.72;;;20.83;56.65
9187;BME280;7273;48.902;9.410;2022-09-09T11:56:43;97757.38;;;20.40;57.97
9187;BME280;7273;48.902;9.410;2022-09-09T11:59:22;97760.06;;;20.00;58.48
9187;BME280;7273;48.902;9.410;2022-09-09T12:02:14;97768.19;;;19.84;59.38
9187;BME280;7273;48.902;9.410;2022-09-09T12:04:47;97757.75;;;19.66;58.85
9187;BME280;7273;48.902;9.410;2022-09-09T12:07:25;97759.25;;;19.39;59.03
9187;BME280;7273;48.902;9.410;2022-09-09T12:12:38;97751.69;;;19.36;63.63
9187;BME280;7273;48.902;9.410;2022-09-09T12:17:42;97736.63;;;19.42;59.95
9187;BME280;7273;48.902;9.410;2022-09-09T12:20:15;97737.66;;;19.98;59.51
9187;BME280;7273;48.902;9.410;2022-09-09T12:28:21;97718.19;;;21.41;59.56
9187;BME280;7273;48.902;9.410;2022-09-09T12:33:39;97719.31;;;21.56;58.40
9187;BME280;7273;48.902;9.410;2022-09-09T12:36:13;97729.84;;;21.81;57.72
9187;BME280;7273;48.902;9.410;2022-09-09T12:38:42;97731.63;;;22.08;57.35
9187;BME280;7273;48.902;9.410;2022-09-09T12:41:19;97731.69;;;22.27;57.11
9187;BME280;7273;48.902;9.410;2022-09-09T12:43:46;97724.72;;;22.33;57.29
9187;BME280;7273;48.902;9.410;2022-09-09T12:48:46;97725.09;;;22.51;56.58
9187;BME280;7273;48.902;9.410;2022-09-09T12:51:23;97718.13;;;22.38;56.16
9187;BME280;7273;48.902;9.410;2022-09-09T12:53:50;97719.28;;;22.37;55.98
9187;BME280;7273;48.902;9.410;2022-09-09T12:56:21;97712.53;;;22.15;55.58
9187;BME280;7273;48.902;9.410;2022-09-09T12:58:50;97700.91;;;22.06;55.90
9187;BME280;7273;48.902;9.410;2022-09-09T13:01:27;97700.38;;;22.01;55.41
9187;BME280;7273;48.902;9.410;2022-09-09T13:03:54;97697.38;;;21.90;55.63
9187;BME280;7273;48.902;9.410;2022-09-09T13:06:25;97694.53;;;21.87;55.40
9187;BME280;7273;48.902;9.410;2022-09-09T13:08:52;97692.59;;;21.87;55.38
9187;BME280;7273;48.902;9.410;2022-09-09T13:11:27;97700.19;;;22.09;54.91
9187;BME280;7273;48.902;9.410;2022-09-09T13:13:56;97683.66;;;22.09;55.51
9187;BME280;7273;48.902;9.410;2022-09-09T13:16:31;97688.94;;;22.18;55.28
9187;BME280;7273;48.902;9.410;2022-09-09T13:18:59;97680.47;;;22.26;55.11
9187;BME280;7273;48.902;9.410;2022-09-09T13:21:36;97679.81;;;22.14;54.85
9187;BME280;7273;48.902;9.410;2022-09-09T13:24:04;97680.91;;;22.09;54.95
9187;BME280;7273;48.902;9.410;2022-09-09T13:26:31;97680.25;;;22.16;54.50
9187;BME280;7273;48.902;9.410;2022-09-09T13:29:17;97675.59;;;22.01;53.97
9187;BME280;7273;48.902;9.410;2022-09-09T13:31:44;97674.94;;;21.88;54.67
9187;BME280;7273;48.902;9.410;2022-09-09T13:36:55;97669.16;;;21.62;54.72
9187;BME280;7273;48.902;9.410;2022-09-09T13:39:22;97667.47;;;21.58;54.89
9187;BME280;7273;48.902;9.410;2022-09-09T13:41:48;97671.84;;;21.43;55.06
9187;BME280;7273;48.902;9.410;2022-09-09T13:44:18;97665.84;;;21.38;54.93
9187;BME280;7273;48.902;9.410;2022-09-09T13:46:44;97671.50;;;21.29;54.98
9187;BME280;7273;48.902;9.410;2022-09-09T13:51:40;97661.56;;;21.24;55.11
9187;BME280;7273;48.902;9.410;2022-09-09T13:54:10;97653.03;;;21.29;54.87
9187;BME280;7273;48.902;9.410;2022-09-09T13:56:36;97648.34;;;21.46;54.80
9187;BME280;7273;48.902;9.410;2022-09-09T13:59:04;97643.06;;;21.56;54.87
9187;BME280;7273;48.902;9.410;2022-09-09T14:01:30;97642.97;;;21.68;54.55
9187;BME280;7273;48.902;9.410;2022-09-09T14:03:56;97638.06;;;21.77;54.48
9187;BME280;7273;48.902;9.410;2022-09-09T14:06:22;97640.28;;;21.87;54.29
9187;BME280;7273;48.902;9.410;2022-09-09T14:08:51;97642.22;;;21.87;53.83
9187;BME280;7273;48.902;9.410;2022-09-09T14:11:17;97639.13;;;21.88;53.93
9187;BME280;7273;48.902;9.410;2022-09-09T14:13:43;97643.75;;;21.84;53.60
9187;BME280;7273;48.902;9.410;2022-09-09T14:16:09;97643.66;;;21.81;53.38
9187;BME280;7273;48.902;9.410;2022-09-09T14:18:35;97645.88;;;21.75;53.35
9187;BME280;7273;48.902;9.410;2022-09-09T14:21:00;97642.97;;;21.68;53.53
9187;BME280;7273;48.902;9.410;2022-09-09T14:23:27;97646.16;;;21.70;53.52
9187;BME280;7273;48.902;9.410;2022-09-09T14:25:52;97645.72;;;21.68;53.27
9187;BME280;7273;48.902;9.410;2022-09-09T14:28:18;97645.63;;;21.80;52.80
9187;BME280;7273;48.902;9.410;2022-09-09T14:30:43;97641.81;;;21.85;52.86
9187;BME280;7273;48.902;9.410;2022-09-09T14:33:13;97635.03;;;21.82;52.90
9187;BME280;7273;48.902;9.410;2022-09-09T14:35:39;97634.69;;;21.84;52.65
9187;BME280;7273;48.902;9.410;2022-09-09T14:38:07;97634.31;;;21.85;52.58
9187;BME280;7273;48.902;9.410;2022-09-09T14:40:35;97631.50;;;21.82;52.55
9187;BME280;7273;48.902;9.410;2022-09-09T14:43:01;97637.34;;;21.80;52.39
9187;BME280;7273;48.902;9.410;2022-09-09T14:45:27;97635.84;;;21.83;52.31
9187;BME280;7273;48.902;9.410;2022-09-09T14:47:53;97632.00;;;21.87;52.28
9187;BME280;7273;48.902;9.410;2022-09-09T14:50:20;97628.16;;;21.92;52.27
9187;BME280;7273;48.902;9.410;2022-09-09T14:52:46;97631.97;;;22.03;51.97
9187;BME280;7273;48.902;9.410;2022-09-09T14:55:12;97632.63;;;22.15;51.49
9187;BME280;7273;48.902;9.410;2022-09-09T14:57:38;97626.09;;;22.23;51.46
9187;BME280;7273;48.902;9.410;2022-09-09T15:00:07;97630.44;;;22.24;50.86
9187;BME280;7273;48.902;9.410;2022-09-09T15:02:33;97621.09;;;22.29;50.88
9187;BME280;7273;48.902;9.410;2022-09-09T15:04:58;97621.09;;;22.29;50.88
9187;BME280;7273;48.902;9.410;2022-09-09T15:07:25;97624.59;;;22.26;50.54
9187;BME280;7273;48.902;9.410;2022-09-09T15:09:50;97632.78;;;22.22;50.82
9187;BME280;7273;48.902;9.410;2022-09-09T15:12:17;97622.41;;;22.16;50.55
9187;BME280;7273;48.902;9.410;2022-09-09T15:14:44;97635.81;;;22.17;50.87
9187;BME280;7273;48.902;9.410;2022-09-09T15:17:10;97636.19;;;22.16;50.86
9187;BME280;7273;48.902;9.410;2022-09-09T15:19:36;97638.56;;;22.17;51.05
9187;BME280;7273;48.902;9.410;2022-09-09T15:22:02;97641.34;;;22.17;50.91
9187;BME280;7273;48.902;9.410;2022-09-09T15:24:28;97635.75;;;22.14;50.76
9187;BME280;7273;48.902;9.410;2022-09-09T15:26:53;97639.66;;;22.13;50.69
9187;BME280;7273;48.902;9.410;2022-09-09T15:29:19;97641.91;;;22.07;50.87
9187;BME280;7273;48.902;9.410;2022-09-09T15:31:44;97625.66;;;22.02;50.67